Pagina principală
METAR-TAF:

METAR-TAF

Aeroporturi :

Balmaceda, Chile

Latitudine: 45-55S, longitudine: 071-41W, elevație: 520 m

Observații meteo curente

Raportul a fost făcut în urmă cu 36 de minute, la 05:00 UTC
Vânt 3 kt de la Sud
Temperatură 0°C
Umiditate 74%
Presiune 1020 hPa
Vizibilitate de 10 km sau mai mult

METAR: SCBA 140500Z AUTO 18003KT 9999 NCD 00/M04 Q1020

Ora: 01:36 (05:36 UTC)

Prognoză

Raportul a fost făcut în urmă cu 7 ore și 12 de minute, la 22:24 UTC
Prognoză valabilă de la 14 ora 00 UTC la 14 ora 24 UTC
Vânt 2 kt din direcții variabile
Vizibilitate de 10 km sau mai mult
nu există nori sub 1.500 m și nici cumulonimbus
Devenind
de la 14 ora 16 UTC la 14 ora 18 UTC
Vânt 10 kt de la Vest/Nord-vest

TAF: SCBA 132224Z 1400/1424 VRB02KT CAVOK TNM02/1410Z TX17/1419Z BECMG 1416/1418 30010KT

Observații și prognoze meteo pentru peste 4.000 de aeroporturi (rapoarte METAR și TAF).

Stațiile disponibile sunt reprezentate pe hartă prin puncte galbene și roșii.

Țineți indicatorul mouse-ului pe punctul dorit pentru a vedea denumirea stației.

Apoi, faceți clic pentru a vedea observațiile și prognozele meteorologice.

Pentru a schimba harta: Pentru mărire, faceți clic pe butoanele verzi cu cruce neagră; pentru micșorare, pe butonul verde cu o liniuță; pentru hărți învecinate, pe săgețile verzi.


METAR-TAF: